createdAt,value
2018-07-09T00:01:37.080Z,9.83
2018-07-09T00:04:04.076Z,8.43
2018-07-09T00:06:31.130Z,10.70
2018-07-09T00:08:58.112Z,8.37
2018-07-09T00:11:25.112Z,9.40
2018-07-09T00:13:52.183Z,12.57
2018-07-09T00:16:19.176Z,10.97
2018-07-09T00:18:46.170Z,10.70
2018-07-09T00:21:14.187Z,10.03
2018-07-09T00:26:21.710Z,11.93
2018-07-09T00:28:48.697Z,12.13
2018-07-09T00:31:15.696Z,13.30
2018-07-09T00:33:43.708Z,12.40
2018-07-09T00:36:10.791Z,10.97
2018-07-09T00:38:38.749Z,10.37
2018-07-09T00:41:05.809Z,11.37
2018-07-09T00:43:32.809Z,9.70
2018-07-09T00:45:59.804Z,10.80
2018-07-09T00:48:26.855Z,11.57
2018-07-09T00:50:53.860Z,12.00
2018-07-09T00:53:20.863Z,9.73
2018-07-09T00:55:47.924Z,10.83
2018-07-09T00:58:14.920Z,10.80
2018-07-09T01:00:41.917Z,10.80
2018-07-09T01:03:08.973Z,13.47
2018-07-09T01:05:35.955Z,9.83
2018-07-09T01:08:02.957Z,12.43
2018-07-09T01:10:30.019Z,11.83
2018-07-09T01:12:57.910Z,9.63
2018-07-09T01:15:24.909Z,11.87
2018-07-09T01:17:52.047Z,10.23
2018-07-09T01:20:20.116Z,12.90
2018-07-09T01:22:47.085Z,11.60
2018-07-09T01:25:14.160Z,10.83
2018-07-09T01:27:41.172Z,12.37
2018-07-09T01:30:08.184Z,10.60
2018-07-09T01:32:35.226Z,12.37
2018-07-09T01:37:40.242Z,11.30
2018-07-09T01:40:07.251Z,11.70
2018-07-09T01:42:34.246Z,13.07
2018-07-09T01:45:01.284Z,12.90
2018-07-09T01:47:28.276Z,12.80
2018-07-09T01:49:55.759Z,9.90
2018-07-09T01:52:23.351Z,10.13
2018-07-09T01:54:51.283Z,9.77
2018-07-09T01:57:18.290Z,10.30
2018-07-09T01:59:45.353Z,12.63
2018-07-09T02:02:12.356Z,12.80
2018-07-09T02:04:39.356Z,12.40
2018-07-09T02:07:06.400Z,12.97
2018-07-09T02:09:33.406Z,9.43
2018-07-09T02:12:00.407Z,12.80
2018-07-09T02:14:27.448Z,11.00
2018-07-09T02:16:54.453Z,10.07
2018-07-09T02:19:21.455Z,12.30
2018-07-09T02:21:49.510Z,11.80
2018-07-09T02:24:16.514Z,10.77
2018-07-09T02:26:43.519Z,10.30
2018-07-09T02:29:10.553Z,9.40
2018-07-09T02:31:37.552Z,10.00
2018-07-09T02:34:04.558Z,10.30
2018-07-09T02:36:31.604Z,9.40
2018-07-09T02:38:58.599Z,11.07
2018-07-09T02:41:25.597Z,10.00
2018-07-09T02:46:31.161Z,9.70
2018-07-09T02:48:58.244Z,9.83
2018-07-09T02:51:25.208Z,9.13
2018-07-09T02:53:52.211Z,9.47
2018-07-09T02:56:19.248Z,12.77
2018-07-09T02:58:46.251Z,11.17
2018-07-09T03:01:14.143Z,10.83
2018-07-09T03:03:41.060Z,10.10
2018-07-09T03:06:08.115Z,9.70
2018-07-09T03:08:35.064Z,10.10
2018-07-09T03:11:02.098Z,10.23
2018-07-09T03:13:29.119Z,11.03
2018-07-09T03:15:56.133Z,9.43
2018-07-09T03:18:23.206Z,10.10
2018-07-09T03:20:50.209Z,11.87
2018-07-09T03:23:17.204Z,7.80
2018-07-09T03:25:44.352Z,15.40
2018-07-09T03:28:11.437Z,10.37
2018-07-09T03:30:38.441Z,10.63
2018-07-09T03:33:05.499Z,8.00
2018-07-09T03:35:32.579Z,8.43
2018-07-09T03:37:59.585Z,9.53
2018-07-09T03:40:26.639Z,11.93
2018-07-09T03:42:53.731Z,12.57
2018-07-09T03:45:20.719Z,9.07
2018-07-09T03:47:47.770Z,10.03
2018-07-09T03:50:15.700Z,8.33
2018-07-09T03:52:42.693Z,9.00
2018-07-09T03:55:09.759Z,8.73
2018-07-09T04:00:16.225Z,10.35
2018-07-09T04:02:44.190Z,8.77
2018-07-09T04:05:11.182Z,8.33
2018-07-09T04:07:38.285Z,9.83
2018-07-09T04:10:05.296Z,13.00
2018-07-09T04:12:32.284Z,8.87
2018-07-09T04:14:59.327Z,9.57
2018-07-09T04:17:26.315Z,9.23
2018-07-09T04:19:53.317Z,9.27
2018-07-09T04:22:20.414Z,9.33
2018-07-09T04:24:47.402Z,8.37
2018-07-09T04:27:15.117Z,12.00
2018-07-09T04:29:42.865Z,8.57
2018-07-09T04:32:09.858Z,10.13
2018-07-09T04:34:36.854Z,11.40
2018-07-09T04:37:03.920Z,11.37
2018-07-09T04:39:30.931Z,12.17
2018-07-09T04:41:57.924Z,10.30
2018-07-09T04:44:24.963Z,11.97
2018-07-09T04:46:52.804Z,12.07
2018-07-09T04:49:19.801Z,11.73
2018-07-09T04:51:46.861Z,13.90
2018-07-09T04:54:13.865Z,15.33
2018-07-09T04:56:40.877Z,10.07
2018-07-09T04:59:07.920Z,10.60
2018-07-09T05:01:34.919Z,10.77
2018-07-09T05:04:01.916Z,8.83
2018-07-09T05:06:28.950Z,9.03
2018-07-09T05:08:55.950Z,12.87
2018-07-09T05:11:23.037Z,11.20
2018-07-09T05:13:50.115Z,10.50
2018-07-09T05:18:55.627Z,12.60
2018-07-09T05:21:22.620Z,11.93
2018-07-09T05:23:49.611Z,11.70
2018-07-09T05:26:17.619Z,11.67
2018-07-09T05:28:44.620Z,13.70
2018-07-09T05:31:11.615Z,17.33
2018-07-09T05:33:38.654Z,14.83
2018-07-09T05:36:05.650Z,13.40
2018-07-09T05:38:32.736Z,11.87
2018-07-09T05:40:59.769Z,11.03
2018-07-09T05:43:26.781Z,13.20
2018-07-09T05:45:53.855Z,17.97
2018-07-09T05:48:20.910Z,11.20
2018-07-09T05:50:47.911Z,12.53
2018-07-09T05:53:14.906Z,11.23
2018-07-09T05:55:41.979Z,14.33
2018-07-09T05:58:08.986Z,11.10
2018-07-09T06:00:35.988Z,12.17
2018-07-09T06:03:03.053Z,13.00
2018-07-09T06:05:30.164Z,14.40
2018-07-09T06:07:57.169Z,14.57
2018-07-09T06:10:24.212Z,11.47
2018-07-09T06:12:51.988Z,12.43
2018-07-09T06:15:18.984Z,10.97
2018-07-09T06:17:46.921Z,13.37
2018-07-09T06:20:13.921Z,15.27
2018-07-09T06:22:40.922Z,11.20
2018-07-09T06:25:07.978Z,16.67
2018-07-09T06:27:34.990Z,14.13
2018-07-09T06:32:41.439Z,15.25
2018-07-09T06:35:08.436Z,12.63
2018-07-09T06:37:35.445Z,14.30
2018-07-09T06:40:02.516Z,13.93
2018-07-09T06:42:29.516Z,11.73
2018-07-09T06:44:56.520Z,19.77
2018-07-09T06:47:23.566Z,14.70
2018-07-09T06:49:50.572Z,12.93
2018-07-09T06:52:17.579Z,8.83
2018-07-09T06:54:44.646Z,13.37
2018-07-09T06:57:11.649Z,10.03
2018-07-09T06:59:38.646Z,8.60
2018-07-09T07:02:05.689Z,12.37
2018-07-09T07:04:32.696Z,10.73
2018-07-09T07:06:59.694Z,12.47
2018-07-09T07:09:26.757Z,9.87
2018-07-09T07:11:53.757Z,8.37
2018-07-09T07:14:20.779Z,14.73
2018-07-09T07:16:48.314Z,12.03
2018-07-09T07:19:15.303Z,8.63
2018-07-09T07:21:42.301Z,11.67
2018-07-09T07:24:09.374Z,12.17
2018-07-09T07:26:36.396Z,7.40
2018-07-09T07:29:03.417Z,7.80
2018-07-09T07:31:30.455Z,8.13
2018-07-09T07:33:57.459Z,7.57
2018-07-09T07:36:25.297Z,12.83
2018-07-09T07:38:52.330Z,6.70
2018-07-09T07:41:20.036Z,7.37
2018-07-09T07:43:47.034Z,8.10
2018-07-09T07:46:14.112Z,8.30
2018-07-09T07:51:20.583Z,6.97
2018-07-09T07:53:47.579Z,6.97
2018-07-09T07:56:14.602Z,9.70
2018-07-09T07:58:42.328Z,6.47
2018-07-09T08:01:10.516Z,6.13
2018-07-09T08:03:37.519Z,8.30
2018-07-09T08:06:04.574Z,7.60
2018-07-09T08:08:31.576Z,12.33
2018-07-09T08:11:10.908Z,6.97
2018-07-09T08:13:29.227Z,8.67
2018-07-09T08:15:52.718Z,9.43
2018-07-09T08:18:19.806Z,7.00
2018-07-09T08:20:47.818Z,8.70
2018-07-09T08:23:14.802Z,7.40
2018-07-09T08:25:41.904Z,7.50
2018-07-09T08:28:08.858Z,7.47
2018-07-09T08:30:35.849Z,8.63
2018-07-09T08:33:03.846Z,7.27
2018-07-09T08:35:31.070Z,6.37
2018-07-09T08:37:58.067Z,8.93
2018-07-09T08:40:25.066Z,6.37
2018-07-09T08:42:52.119Z,5.53
2018-07-09T08:45:19.114Z,5.43
2018-07-09T08:47:46.204Z,6.97
2018-07-09T08:50:13.250Z,5.43
2018-07-09T08:52:40.261Z,5.83
2018-07-09T08:55:07.254Z,5.80
2018-07-09T08:57:34.312Z,5.93
2018-07-09T09:00:01.302Z,5.97
2018-07-09T09:02:28.298Z,9.93
2018-07-09T09:04:55.378Z,6.53
2018-07-09T09:07:22.468Z,5.33
2018-07-09T09:09:49.520Z,7.20
2018-07-09T09:14:55.042Z,7.80
2018-07-09T09:17:23.050Z,4.70
2018-07-09T09:19:50.053Z,5.67
2018-07-09T09:22:17.053Z,3.37
2018-07-09T09:24:44.107Z,4.83
2018-07-09T09:27:11.925Z,5.93
2018-07-09T09:29:39.863Z,3.37
2018-07-09T09:32:07.762Z,5.37
2018-07-09T09:34:34.758Z,2.97
2018-07-09T09:37:01.755Z,5.17
2018-07-09T09:39:28.789Z,5.20
2018-07-09T09:41:55.784Z,2.50
2018-07-09T09:44:22.785Z,2.97
2018-07-09T09:46:49.862Z,2.83
2018-07-09T09:49:16.890Z,2.60
2018-07-09T09:51:43.845Z,4.47
2018-07-09T09:54:10.883Z,6.77
2018-07-09T09:56:37.878Z,3.10
2018-07-09T09:59:04.876Z,3.40
2018-07-09T10:01:32.790Z,2.60
2018-07-09T10:03:59.794Z,2.70
2018-07-09T10:06:26.792Z,3.13
2018-07-09T10:08:53.844Z,2.80
2018-07-09T10:11:21.175Z,2.63
2018-07-09T10:13:48.178Z,2.57
2018-07-09T10:16:15.238Z,2.50
2018-07-09T10:18:42.239Z,2.37
2018-07-09T10:21:09.225Z,4.10
2018-07-09T10:28:55.722Z,2.40
2018-07-09T10:31:22.721Z,2.00
2018-07-09T10:33:50.561Z,2.23
2018-07-09T10:36:17.626Z,2.03
2018-07-09T10:38:44.624Z,3.63
2018-07-09T10:41:11.631Z,3.67
2018-07-09T10:43:38.672Z,3.83
2018-07-09T10:46:05.676Z,3.43
2018-07-09T10:48:32.667Z,5.30
2018-07-09T10:50:59.727Z,2.70
2018-07-09T10:53:26.744Z,2.87
2018-07-09T10:55:53.736Z,2.30
2018-07-09T10:58:20.802Z,3.17
2018-07-09T11:00:47.845Z,2.10
2018-07-09T11:03:14.801Z,2.53
2018-07-09T11:05:41.844Z,2.70
2018-07-09T11:08:08.847Z,2.73
2018-07-09T11:10:35.870Z,3.13
2018-07-09T11:13:02.949Z,3.60
2018-07-09T11:15:29.949Z,2.37
2018-07-09T11:17:56.944Z,2.23
2018-07-09T11:20:23.987Z,2.60
2018-07-09T11:22:50.981Z,4.50
2018-07-09T11:25:17.984Z,2.60
2018-07-09T11:27:45.026Z,3.30
2018-07-09T11:30:12.018Z,2.80
2018-07-09T11:32:39.026Z,2.93
2018-07-09T11:35:06.093Z,2.23
2018-07-09T11:37:33.104Z,2.10
2018-07-09T11:40:00.109Z,2.80
2018-07-09T11:42:27.143Z,1.87
2018-07-09T11:44:54.161Z,2.07
2018-07-09T11:47:22.104Z,2.33
2018-07-09T11:49:49.966Z,1.93
2018-07-09T11:54:57.482Z,2.67
2018-07-09T11:57:24.491Z,1.50
2018-07-09T11:59:51.498Z,1.80
2018-07-09T12:02:19.399Z,1.60
2018-07-09T12:04:46.428Z,4.43
2018-07-09T12:07:13.396Z,1.40
2018-07-09T12:09:40.444Z,1.90
2018-07-09T12:12:07.433Z,3.07
2018-07-09T12:14:34.440Z,2.20
2018-07-09T12:17:01.479Z,2.17
2018-07-09T12:19:28.481Z,2.90
2018-07-09T12:21:55.491Z,1.97
2018-07-09T12:24:23.510Z,1.90
2018-07-09T12:26:50.519Z,2.70
2018-07-09T12:29:17.513Z,2.27
2018-07-09T12:31:45.514Z,1.80
2018-07-09T12:34:12.511Z,4.83
2018-07-09T12:36:39.503Z,2.97
2018-07-09T12:39:06.574Z,1.37
2018-07-09T12:41:33.590Z,1.50
2018-07-09T12:44:00.684Z,3.00
2018-07-09T12:46:27.733Z,1.70
2018-07-09T12:48:55.487Z,1.80
2018-07-09T12:51:22.473Z,1.73
2018-07-09T12:53:49.548Z,1.97
2018-07-09T12:56:16.557Z,3.17
2018-07-09T12:58:43.558Z,3.43
2018-07-09T13:01:10.606Z,1.37
2018-07-09T13:06:16.150Z,2.80
2018-07-09T13:08:43.151Z,2.17
2018-07-09T13:11:10.144Z,1.97
2018-07-09T13:13:37.203Z,2.43
2018-07-09T13:16:04.188Z,3.33
2018-07-09T13:18:31.201Z,5.07
2018-07-09T13:20:58.264Z,1.60
2018-07-09T13:23:25.449Z,2.03
2018-07-09T13:25:52.987Z,3.17
2018-07-09T13:28:20.023Z,2.80
2018-07-09T13:30:47.027Z,1.70
2018-07-09T13:35:56.040Z,1.60
2018-07-09T13:38:23.113Z,2.33
2018-07-09T13:40:50.948Z,1.87
2018-07-09T13:43:18.109Z,1.63
2018-07-09T13:45:45.025Z,1.70
2018-07-09T13:48:12.028Z,2.00
2018-07-09T13:50:39.091Z,1.50
2018-07-09T13:53:06.079Z,3.00
2018-07-09T13:55:33.159Z,2.20
2018-07-09T13:58:01.186Z,1.97
2018-07-09T14:00:28.172Z,1.97
2018-07-09T14:02:55.180Z,2.53
2018-07-09T14:05:22.221Z,2.20
2018-07-09T14:07:50.085Z,1.70
2018-07-09T14:10:17.132Z,4.60
2018-07-09T14:12:44.121Z,3.10
2018-07-09T14:15:11.126Z,2.47
2018-07-09T14:17:38.121Z,4.10
2018-07-09T14:22:52.063Z,3.93
2018-07-09T14:25:19.120Z,2.10
2018-07-09T14:27:46.106Z,3.40
2018-07-09T14:30:14.041Z,5.23
2018-07-09T14:32:41.083Z,1.60
2018-07-09T14:35:08.089Z,2.10
2018-07-09T14:37:35.076Z,4.20
2018-07-09T14:40:02.128Z,3.40
2018-07-09T14:42:29.141Z,1.47
2018-07-09T14:44:56.957Z,1.70
2018-07-09T14:47:25.000Z,4.87
2018-07-09T14:49:52.010Z,3.57
2018-07-09T14:52:19.822Z,1.93
2018-07-09T14:54:46.860Z,3.23
2018-07-09T14:57:13.942Z,2.07
2018-07-09T14:59:40.842Z,2.20
2018-07-09T15:02:08.814Z,3.97
2018-07-09T15:04:35.865Z,2.80
2018-07-09T15:07:03.656Z,3.50
2018-07-09T15:09:30.745Z,2.30
2018-07-09T15:11:58.483Z,1.70
2018-07-09T15:14:25.576Z,2.90
2018-07-09T15:16:52.619Z,2.83
2018-07-09T15:19:19.621Z,3.63
2018-07-09T15:21:46.703Z,2.90
2018-07-09T15:24:13.770Z,2.80
2018-07-09T15:26:41.535Z,2.20
2018-07-09T15:29:08.521Z,2.13
2018-07-09T15:31:35.651Z,2.20
2018-07-09T15:34:02.657Z,2.47
2018-07-09T15:39:08.179Z,4.80
2018-07-09T15:44:02.269Z,2.80
2018-07-09T15:46:29.538Z,2.53
2018-07-09T15:48:56.398Z,2.10
2018-07-09T15:51:23.396Z,3.07
2018-07-09T15:53:51.374Z,2.50
2018-07-09T15:56:18.449Z,4.50
2018-07-09T15:58:45.458Z,5.03
2018-07-09T16:01:12.527Z,3.00
2018-07-09T16:03:39.522Z,4.00
2018-07-09T16:06:07.382Z,2.07
2018-07-09T16:08:34.393Z,5.03
2018-07-09T16:11:01.410Z,3.33
2018-07-09T16:13:28.505Z,2.63
2018-07-09T16:15:55.568Z,2.63
2018-07-09T16:18:23.426Z,3.17
2018-07-09T16:20:50.445Z,3.53
2018-07-09T16:23:17.480Z,4.77
2018-07-09T16:25:44.488Z,2.27
2018-07-09T16:28:11.483Z,4.33
2018-07-09T16:30:38.556Z,4.57
2018-07-09T16:33:05.544Z,2.83
2018-07-09T16:35:32.540Z,5.07
2018-07-09T16:37:59.610Z,4.33
2018-07-09T16:40:26.608Z,2.47
2018-07-09T16:42:53.618Z,2.70
2018-07-09T16:45:20.892Z,4.10
2018-07-09T16:47:47.727Z,2.50
2018-07-09T16:50:14.724Z,5.47
2018-07-09T16:52:41.847Z,2.30
2018-07-09T16:57:47.306Z,5.07
2018-07-09T17:00:14.312Z,3.70
2018-07-09T17:02:41.304Z,3.87
2018-07-09T17:05:08.366Z,3.33
2018-07-09T17:07:35.802Z,6.70
2018-07-09T17:10:02.831Z,3.13
2018-07-09T17:12:29.908Z,5.03
2018-07-09T17:14:56.934Z,2.77
2018-07-09T17:17:24.885Z,3.93
2018-07-09T17:19:51.937Z,2.93
2018-07-09T17:22:19.931Z,2.93
2018-07-09T17:24:46.926Z,4.70
2018-07-09T17:27:14.203Z,2.90
2018-07-09T17:29:41.093Z,3.50
2018-07-09T17:32:08.146Z,3.30
2018-07-09T17:34:37.610Z,3.27
2018-07-09T17:37:05.243Z,4.43
2018-07-09T17:39:32.252Z,4.30
2018-07-09T17:41:59.288Z,3.27
2018-07-09T17:44:26.303Z,5.90
2018-07-09T17:46:53.319Z,4.43
2018-07-09T17:49:20.400Z,6.33
2018-07-09T17:54:28.439Z,3.63
2018-07-09T17:56:55.435Z,2.40
2018-07-09T17:59:22.853Z,3.00
2018-07-09T18:01:49.927Z,7.60
2018-07-09T18:04:16.940Z,2.87
2018-07-09T18:06:43.966Z,5.10
2018-07-09T18:09:11.020Z,2.90
2018-07-09T18:11:38.023Z,4.10
2018-07-09T18:14:05.546Z,3.20
2018-07-09T18:16:32.592Z,2.90
2018-07-09T18:19:00.316Z,2.40
2018-07-09T18:21:27.420Z,3.10
2018-07-09T18:23:54.469Z,2.83
2018-07-09T18:26:22.457Z,4.20
2018-07-09T18:28:49.469Z,5.17
2018-07-09T18:31:16.546Z,2.53
2018-07-09T18:33:43.581Z,2.27
2018-07-09T18:36:10.604Z,3.47
2018-07-09T18:38:37.690Z,3.53
2018-07-09T18:41:04.666Z,4.93
2018-07-09T18:43:31.680Z,2.80
2018-07-09T18:45:58.732Z,4.43
2018-07-09T18:48:25.839Z,2.93
2018-07-09T18:50:52.737Z,2.27
2018-07-09T18:53:19.784Z,2.43
2018-07-09T18:55:46.775Z,2.27
2018-07-09T18:58:13.829Z,4.03
2018-07-09T19:03:22.584Z,4.30
2018-07-09T19:05:49.658Z,4.10
2018-07-09T19:08:16.667Z,3.27
2018-07-09T19:10:43.821Z,3.37
2018-07-09T19:13:11.367Z,2.27
2018-07-09T19:15:38.369Z,7.40
2018-07-09T19:18:17.454Z,2.47
2018-07-09T19:23:29.957Z,3.13
2018-07-09T19:25:56.463Z,3.63
2018-07-09T19:28:24.198Z,2.93
2018-07-09T19:30:50.569Z,4.90
2018-07-09T19:33:17.227Z,2.23
2018-07-09T19:35:43.751Z,2.90
2018-07-09T19:38:10.484Z,3.43
2018-07-09T19:40:37.408Z,4.67
2018-07-09T19:43:03.968Z,3.13
2018-07-09T19:45:31.835Z,2.70
2018-07-09T19:47:58.356Z,3.40
2018-07-09T19:50:25.655Z,3.53
2018-07-09T19:52:52.368Z,3.53
2018-07-09T19:55:19.532Z,5.30
2018-07-09T19:57:46.524Z,3.73
2018-07-09T20:00:16.813Z,3.43
2018-07-09T20:02:44.808Z,3.60
2018-07-09T20:05:11.700Z,9.33
2018-07-09T20:07:40.099Z,2.97
2018-07-09T20:10:07.284Z,3.33
2018-07-09T20:12:33.795Z,3.10
2018-07-09T20:15:00.954Z,4.43
2018-07-09T20:17:28.398Z,2.90
2018-07-09T20:19:55.591Z,4.80
2018-07-09T20:25:03.247Z,5.50
2018-07-09T20:27:30.401Z,3.23
2018-07-09T20:29:56.860Z,3.43
2018-07-09T20:32:23.357Z,3.37
2018-07-09T20:34:50.091Z,6.83
2018-07-09T20:37:16.760Z,5.37
2018-07-09T20:39:43.320Z,4.13
2018-07-09T20:42:09.953Z,3.93
2018-07-09T20:44:36.495Z,3.27
2018-07-09T20:47:03.091Z,5.47
2018-07-09T20:49:29.663Z,4.63
2018-07-09T20:51:56.615Z,4.37
2018-07-09T20:54:23.249Z,4.47
2018-07-09T20:56:49.844Z,5.03
2018-07-09T20:59:16.406Z,7.13
2018-07-09T21:01:43.278Z,3.97
2018-07-09T21:04:09.856Z,4.03
2018-07-09T21:06:36.371Z,3.17
2018-07-09T21:09:02.871Z,4.07
2018-07-09T21:11:29.430Z,4.13
2018-07-09T21:13:55.947Z,3.70
2018-07-09T21:16:22.483Z,5.63
2018-07-09T21:18:49.013Z,3.43
2018-07-09T21:21:15.523Z,6.47
2018-07-09T21:23:42.370Z,6.43
2018-07-09T21:26:08.948Z,3.43
2018-07-09T21:28:35.512Z,5.07
2018-07-09T21:31:01.972Z,4.97
2018-07-09T21:33:28.899Z,5.53
2018-07-09T21:35:55.401Z,6.20
2018-07-09T21:38:21.913Z,5.53
2018-07-09T21:40:48.850Z,6.50
2018-07-09T21:43:15.351Z,4.33
2018-07-09T21:45:41.921Z,3.63
2018-07-09T21:48:10.556Z,8.57
2018-07-09T21:53:15.075Z,4.65
2018-07-09T21:55:41.551Z,8.30
2018-07-09T21:58:08.840Z,10.10
2018-07-09T22:00:35.425Z,4.60
2018-07-09T22:03:02.270Z,5.97
2018-07-09T22:05:29.130Z,6.07
2018-07-09T22:07:55.681Z,3.60
2018-07-09T22:10:22.216Z,8.63
2018-07-09T22:12:48.718Z,4.57
2018-07-09T22:15:15.617Z,4.70
2018-07-09T22:17:42.205Z,6.60
2018-07-09T22:20:09.483Z,9.37
2018-07-09T22:22:36.464Z,4.37
2018-07-09T22:25:02.963Z,4.80
2018-07-09T22:27:29.475Z,6.83
2018-07-09T22:29:56.029Z,3.57
2018-07-09T22:32:23.023Z,4.23
2018-07-09T22:37:21.538Z,3.93
2018-07-09T22:39:50.256Z,5.03
2018-07-09T22:42:21.164Z,5.57
2018-07-09T22:44:47.588Z,8.37
2018-07-09T22:47:14.461Z,4.43
2018-07-09T22:49:41.461Z,3.40
2018-07-09T22:52:08.617Z,6.27
2018-07-09T22:54:35.617Z,6.43
2018-07-09T22:57:02.617Z,5.10
2018-07-09T22:59:29.648Z,6.87
2018-07-09T23:01:56.643Z,4.20
2018-07-09T23:04:24.820Z,4.67
2018-07-09T23:06:52.115Z,5.57
2018-07-09T23:12:02.663Z,6.43
2018-07-09T23:14:28.577Z,4.03
2018-07-09T23:17:07.315Z,3.50
2018-07-09T23:19:34.651Z,6.50
2018-07-09T23:22:02.588Z,7.83
2018-07-09T23:24:29.440Z,5.17
2018-07-09T23:26:55.938Z,4.43
2018-07-09T23:31:59.400Z,4.93
2018-07-09T23:34:26.888Z,3.77
2018-07-09T23:36:53.382Z,5.00
2018-07-09T23:39:19.958Z,4.00
2018-07-09T23:41:46.469Z,5.37
2018-07-09T23:44:12.993Z,3.03
2018-07-09T23:46:39.538Z,6.83
2018-07-09T23:49:06.873Z,4.77
2018-07-09T23:51:34.330Z,6.47
2018-07-09T23:54:00.890Z,3.47
2018-07-09T23:56:27.929Z,4.73
2018-07-09T23:58:54.916Z,4.70
